Preston, Maryland
Current Conditions -  °F | °C
As of 3:52 AM on Saturday 25 Oct 2014 (Local Time) from KESN Reporting Station
Clear Clear  
Wind Chill: 51°   Ceiling: Unl
Heat Index: 51°   Visibility: 10mi
Dew Point: 44°   Wind: 0mph
Humidity: 76%   Direction: NA
Pressure: 29.97"   Gusts: NA
Location:  38.71°N, 75.91°W
Report Text: KESN 250752Z AUTO 00000KT 10SM CLR 10/06 A2997 RMK AO2 T01040064
Loading
Personal Weather Stations






























Interactive Weather Map
Tropical Storm Tracking
New forecast layout! Learn more

10-Day Weather Forecast

Advertisements
Track Severe Weather on mobile